sensor_id;sensor_type;location;lat;lon;timestamp;pressure;altitude;pressure_sealevel;temperature;humidity
74529;BME280;63009;52.584;5.932;2023-05-19T00:01:39;102828.56;;;7.83;100.00
74529;BME280;63009;52.584;5.932;2023-05-19T00:04:08;102826.91;;;7.77;100.00
74529;BME280;63009;52.584;5.932;2023-05-19T00:06:34;102824.31;;;7.72;100.00
74529;BME280;63009;52.584;5.932;2023-05-19T00:09:10;102812.97;;;7.69;100.00
74529;BME280;63009;52.584;5.932;2023-05-19T00:11:37;102823.47;;;7.72;100.00
74529;BME280;63009;52.584;5.932;2023-05-19T00:14:05;102831.28;;;7.78;100.00
74529;BME280;63009;52.584;5.932;2023-05-19T00:16:32;102819.16;;;7.68;100.00
74529;BME280;63009;52.584;5.932;2023-05-19T00:18:58;102820.81;;;7.75;100.00
74529;BME280;63009;52.584;5.932;2023-05-19T00:21:27;102827.00;;;7.71;100.00
74529;BME280;63009;52.584;5.932;2023-05-19T00:23:52;102810.44;;;7.64;100.00
74529;BME280;63009;52.584;5.932;2023-05-19T00:26:18;102825.31;;;7.67;100.00
74529;BME280;63009;52.584;5.932;2023-05-19T00:28:43;102821.88;;;7.62;100.00
74529;BME280;63009;52.584;5.932;2023-05-19T00:31:08;102811.41;;;7.56;100.00
74529;BME280;63009;52.584;5.932;2023-05-19T00:33:34;102809.63;;;7.61;100.00
74529;BME280;63009;52.584;5.932;2023-05-19T00:36:00;102799.06;;;7.62;100.00
74529;BME280;63009;52.584;5.932;2023-05-19T00:38:31;102802.59;;;7.60;100.00
74529;BME280;63009;52.584;5.932;2023-05-19T00:40:56;102802.59;;;7.61;100.00
74529;BME280;63009;52.584;5.932;2023-05-19T00:43:22;102806.09;;;7.59;100.00
74529;BME280;63009;52.584;5.932;2023-05-19T00:45:47;102793.91;;;7.53;100.00
74529;BME280;63009;52.584;5.932;2023-05-19T00:48:12;102801.84;;;7.52;100.00
74529;BME280;63009;52.584;5.932;2023-05-19T00:50:38;102798.25;;;7.56;100.00
74529;BME280;63009;52.584;5.932;2023-05-19T00:53:05;102792.16;;;7.54;100.00
74529;BME280;63009;52.584;5.932;2023-05-19T00:55:30;102796.53;;;7.55;100.00
74529;BME280;63009;52.584;5.932;2023-05-19T00:57:56;102800.94;;;7.53;100.00
74529;BME280;63009;52.584;5.932;2023-05-19T01:00:22;102783.53;;;7.42;100.00
74529;BME280;63009;52.584;5.932;2023-05-19T01:02:47;102791.38;;;7.49;100.00
74529;BME280;63009;52.584;5.932;2023-05-19T01:05:14;102791.38;;;7.45;100.00
74529;BME280;63009;52.584;5.932;2023-05-19T01:07:40;102805.41;;;7.49;100.00
74529;BME280;63009;52.584;5.932;2023-05-19T01:10:07;102788.84;;;7.39;100.00
74529;BME280;63009;52.584;5.932;2023-05-19T01:12:32;102801.03;;;7.47;100.00
74529;BME280;63009;52.584;5.932;2023-05-19T01:14:58;102795.81;;;7.43;100.00
74529;BME280;63009;52.584;5.932;2023-05-19T01:17:40;102788.75;;;7.47;100.00
74529;BME280;63009;52.584;5.932;2023-05-19T01:20:15;102794.06;;;7.42;100.00
74529;BME280;63009;52.584;5.932;2023-05-19T01:28:30;102773.19;;;7.30;100.00
74529;BME280;63009;52.584;5.932;2023-05-19T01:31:02;102781.94;;;7.31;100.00
74529;BME280;63009;52.584;5.932;2023-05-19T01:33:32;102781.97;;;7.29;100.00
74529;BME280;63009;52.584;5.932;2023-05-19T01:35:58;102768.91;;;7.23;100.00
74529;BME280;63009;52.584;5.932;2023-05-19T01:38:24;102774.13;;;7.26;100.00
74529;BME280;63009;52.584;5.932;2023-05-19T01:40:53;102782.91;;;7.25;100.00
74529;BME280;63009;52.584;5.932;2023-05-19T01:43:23;102772.41;;;7.24;100.00
74529;BME280;63009;52.584;5.932;2023-05-19T01:45:50;102759.34;;;7.16;100.00
74529;BME280;63009;52.584;5.932;2023-05-19T01:48:16;102765.50;;;7.18;100.00
74529;BME280;63009;52.584;5.932;2023-05-19T01:50:42;102775.94;;;7.23;100.00
74529;BME280;63009;52.584;5.932;2023-05-19T01:53:07;102765.47;;;7.20;100.00
74529;BME280;63009;52.584;5.932;2023-05-19T01:55:35;102769.00;;;7.15;100.00
74529;BME280;63009;52.584;5.932;2023-05-19T01:58:24;102769.88;;;7.16;100.00
74529;BME280;63009;52.584;5.932;2023-05-19T02:03:47;102768.31;;;7.04;100.00
74529;BME280;63009;52.584;5.932;2023-05-19T02:09:04;102760.41;;;7.03;100.00
74529;BME280;63009;52.584;5.932;2023-05-19T02:11:36;102754.31;;;6.99;100.00
74529;BME280;63009;52.584;5.932;2023-05-19T02:14:11;102756.94;;;7.01;100.00
74529;BME280;63009;52.584;5.932;2023-05-19T02:16:38;102743.03;;;6.93;100.00
74529;BME280;63009;52.584;5.932;2023-05-19T02:19:06;102758.75;;;6.97;100.00
74529;BME280;63009;52.584;5.932;2023-05-19T02:21:43;102766.66;;;6.96;100.00
74529;BME280;63009;52.584;5.932;2023-05-19T02:24:08;102759.66;;;6.95;100.00
74529;BME280;63009;52.584;5.932;2023-05-19T02:26:33;102756.19;;;6.93;100.00
74529;BME280;63009;52.584;5.932;2023-05-19T02:28:59;102735.22;;;6.85;100.00
74529;BME280;63009;52.584;5.932;2023-05-19T02:31:24;102752.66;;;6.94;100.00
74529;BME280;63009;52.584;5.932;2023-05-19T02:33:49;102761.38;;;6.96;100.00
74529;BME280;63009;52.584;5.932;2023-05-19T02:36:14;102753.53;;;6.94;100.00
74529;BME280;63009;52.584;5.932;2023-05-19T02:38:40;102743.94;;;6.89;100.00
74529;BME280;63009;52.584;5.932;2023-05-19T02:41:05;102739.44;;;6.98;100.00
74529;BME280;63009;52.584;5.932;2023-05-19T02:43:30;102742.97;;;6.97;100.00
74529;BME280;63009;52.584;5.932;2023-05-19T02:45:56;102741.25;;;6.95;100.00
74529;BME280;63009;52.584;5.932;2023-05-19T02:48:21;102750.91;;;6.93;100.00
74529;BME280;63009;52.584;5.932;2023-05-19T02:50:46;102742.19;;;6.89;100.00
74529;BME280;63009;52.584;5.932;2023-05-19T02:53:11;102736.91;;;6.89;100.00
74529;BME280;63009;52.584;5.932;2023-05-19T02:55:37;102743.06;;;6.90;100.00
74529;BME280;63009;52.584;5.932;2023-05-19T02:58:02;102739.63;;;6.84;100.00
74529;BME280;63009;52.584;5.932;2023-05-19T03:00:28;102743.09;;;6.87;100.00
74529;BME280;63009;52.584;5.932;2023-05-19T03:02:53;102745.78;;;6.83;100.00
74529;BME280;63009;52.584;5.932;2023-05-19T03:05:19;102728.31;;;6.79;100.00
74529;BME280;63009;52.584;5.932;2023-05-19T03:07:44;102737.00;;;6.83;100.00
74529;BME280;63009;52.584;5.932;2023-05-19T03:10:10;102737.00;;;6.83;100.00
74529;BME280;63009;52.584;5.932;2023-05-19T03:12:36;102729.97;;;6.85;100.00
74529;BME280;63009;52.584;5.932;2023-05-19T03:15:01;102739.59;;;6.86;100.00
74529;BME280;63009;52.584;5.932;2023-05-19T03:17:26;102741.44;;;6.81;100.00
74529;BME280;63009;52.584;5.932;2023-05-19T03:19:57;102741.50;;;6.76;100.00
74529;BME280;63009;52.584;5.932;2023-05-19T03:22:22;102738.06;;;6.70;100.00
74529;BME280;63009;52.584;5.932;2023-05-19T03:24:47;102731.09;;;6.67;100.00
74529;BME280;63009;52.584;5.932;2023-05-19T03:27:15;102720.63;;;6.63;100.00
74529;BME280;63009;52.584;5.932;2023-05-19T03:29:40;102736.34;;;6.66;100.00
74529;BME280;63009;52.584;5.932;2023-05-19T03:32:06;102727.63;;;6.64;100.00
74529;BME280;63009;52.584;5.932;2023-05-19T03:34:31;102725.94;;;6.57;100.00
74529;BME280;63009;52.584;5.932;2023-05-19T03:36:56;102732.03;;;6.62;100.00
74529;BME280;63009;52.584;5.932;2023-05-19T03:39:22;102736.38;;;6.61;100.00
74529;BME280;63009;52.584;5.932;2023-05-19T03:41:47;102726.84;;;6.54;100.00
74529;BME280;63009;52.584;5.932;2023-05-19T03:44:12;102735.59;;;6.54;100.00
74529;BME280;63009;52.584;5.932;2023-05-19T03:46:37;102719.94;;;6.45;100.00
74529;BME280;63009;52.584;5.932;2023-05-19T03:49:03;102738.16;;;6.61;100.00
74529;BME280;63009;52.584;5.932;2023-05-19T03:51:28;102738.16;;;6.62;100.00
74529;BME280;63009;52.584;5.932;2023-05-19T03:53:54;102738.19;;;6.58;100.00
74529;BME280;63009;52.584;5.932;2023-05-19T03:56:19;102743.41;;;6.62;100.00
74529;BME280;63009;52.584;5.932;2023-05-19T03:58:49;102739.03;;;6.63;100.00
74529;BME280;63009;52.584;5.932;2023-05-19T04:01:14;102741.66;;;6.60;100.00
74529;BME280;63009;52.584;5.932;2023-05-19T04:03:40;102739.06;;;6.57;100.00
74529;BME280;63009;52.584;5.932;2023-05-19T04:06:06;102739.06;;;6.58;100.00
74529;BME280;63009;52.584;5.932;2023-05-19T04:08:31;102738.16;;;6.61;100.00
74529;BME280;63009;52.584;5.932;2023-05-19T04:10:56;102743.38;;;6.64;100.00
74529;BME280;63009;52.584;5.932;2023-05-19T04:13:24;102741.59;;;6.66;100.00
74529;BME280;63009;52.584;5.932;2023-05-19T04:15:50;102739.91;;;6.62;100.00
74529;BME280;63009;52.584;5.932;2023-05-19T04:18:15;102744.25;;;6.64;100.00
74529;BME280;63009;52.584;5.932;2023-05-19T04:20:40;102748.59;;;6.68;100.00
74529;BME280;63009;52.584;5.932;2023-05-19T04:23:06;102742.50;;;6.65;100.00
74529;BME280;63009;52.584;5.932;2023-05-19T04:25:31;102744.16;;;6.72;100.00
74529;BME280;63009;52.584;5.932;2023-05-19T04:27:57;102731.97;;;6.66;100.00
74529;BME280;63009;52.584;5.932;2023-05-19T04:30:23;102734.50;;;6.72;100.00
74529;BME280;63009;52.584;5.932;2023-05-19T04:32:49;102732.69;;;6.79;100.00
74529;BME280;63009;52.584;5.932;2023-05-19T04:35:15;102736.16;;;6.82;100.00
74529;BME280;63009;52.584;5.932;2023-05-19T04:37:42;102728.16;;;6.89;100.00
74529;BME280;63009;52.584;5.932;2023-05-19T04:40:10;102738.69;;;6.90;100.00
74529;BME280;63009;52.584;5.932;2023-05-19T04:42:36;102737.72;;;6.96;100.00
74529;BME280;63009;52.584;5.932;2023-05-19T04:45:05;102728.03;;;6.99;100.00
74529;BME280;63009;52.584;5.932;2023-05-19T04:47:33;102734.91;;;7.09;100.00
74529;BME280;63009;52.584;5.932;2023-05-19T04:50:01;102737.44;;;7.17;100.00
74529;BME280;63009;52.584;5.932;2023-05-19T04:52:26;102719.94;;;7.14;100.00
74529;BME280;63009;52.584;5.932;2023-05-19T04:54:52;102728.50;;;7.29;100.00
74529;BME280;63009;52.584;5.932;2023-05-19T04:57:18;102735.38;;;7.39;100.00
74529;BME280;63009;52.584;5.932;2023-05-19T04:59:43;102742.31;;;7.43;100.00
74529;BME280;63009;52.584;5.932;2023-05-19T05:02:08;102732.66;;;7.43;100.00
74529;BME280;63009;52.584;5.932;2023-05-19T05:04:34;102745.59;;;7.60;100.00
74529;BME280;63009;52.584;5.932;2023-05-19T05:07:00;102736.63;;;7.70;100.00
74529;BME280;63009;52.584;5.932;2023-05-19T05:09:25;102734.53;;;7.92;100.00
74529;BME280;63009;52.584;5.932;2023-05-19T05:11:50;102732.69;;;7.97;100.00
74529;BME280;63009;52.584;5.932;2023-05-19T05:14:16;102735.09;;;8.10;100.00
74529;BME280;63009;52.584;5.932;2023-05-19T05:16:42;102745.28;;;8.29;100.00
74529;BME280;63009;52.584;5.932;2023-05-19T05:19:07;102755.47;;;8.51;100.00
74529;BME280;63009;52.584;5.932;2023-05-19T05:21:33;102749.81;;;8.69;100.00
74529;BME280;63009;52.584;5.932;2023-05-19T05:23:59;102757.84;;;8.63;100.00
74529;BME280;63009;52.584;5.932;2023-05-19T05:26:27;102751.50;;;8.73;100.00
74529;BME280;63009;52.584;5.932;2023-05-19T05:28:53;102756.19;;;9.02;100.00
74529;BME280;63009;52.584;5.932;2023-05-19T05:31:19;102756.66;;;9.21;100.00
74529;BME280;63009;52.584;5.932;2023-05-19T05:33:45;102760.19;;;9.59;100.00
74529;BME280;63009;52.584;5.932;2023-05-19T05:36:10;102754.88;;;9.60;99.53
74529;BME280;63009;52.584;5.932;2023-05-19T05:38:35;102751.63;;;9.86;97.36
74529;BME280;63009;52.584;5.932;2023-05-19T05:41:01;102761.25;;;10.23;96.93
74529;BME280;63009;52.584;5.932;2023-05-19T05:43:28;102755.41;;;10.75;94.85
74529;BME280;63009;52.584;5.932;2023-05-19T05:45:54;102746.75;;;10.70;92.49
74529;BME280;63009;52.584;5.932;2023-05-19T05:48:19;102761.31;;;10.85;91.94
74529;BME280;63009;52.584;5.932;2023-05-19T05:50:45;102741.78;;;11.18;91.46
74529;BME280;63009;52.584;5.932;2023-05-19T05:53:18;102749.47;;;11.55;88.98
74529;BME280;63009;52.584;5.932;2023-05-19T05:55:47;102752.94;;;11.57;87.84
74529;BME280;63009;52.584;5.932;2023-05-19T05:58:12;102748.50;;;11.86;87.19
74529;BME280;63009;52.584;5.932;2023-05-19T06:00:40;102745.28;;;12.03;85.67
74529;BME280;63009;52.584;5.932;2023-05-19T06:03:09;102759.28;;;12.06;84.74
74529;BME280;63009;52.584;5.932;2023-05-19T06:05:35;102759.03;;;12.14;84.53
74529;BME280;63009;52.584;5.932;2023-05-19T06:08:00;102758.97;;;12.15;84.91
74529;BME280;63009;52.584;5.932;2023-05-19T06:10:27;102761.53;;;12.18;84.29
74529;BME280;63009;52.584;5.932;2023-05-19T06:12:52;102759.25;;;12.33;83.75
74529;BME280;63009;52.584;5.932;2023-05-19T06:15:17;102768.28;;;12.52;83.48
74529;BME280;63009;52.584;5.932;2023-05-19T06:17:43;102768.00;;;12.85;80.79
74529;BME280;63009;52.584;5.932;2023-05-19T06:20:08;102766.44;;;13.02;80.79
74529;BME280;63009;52.584;5.932;2023-05-19T06:22:34;102764.81;;;13.22;79.53
74529;BME280;63009;52.584;5.932;2023-05-19T06:24:59;102767.81;;;13.36;79.98
74529;BME280;63009;52.584;5.932;2023-05-19T06:27:25;102768.78;;;13.57;78.02
74529;BME280;63009;52.584;5.932;2023-05-19T06:29:50;102767.88;;;13.34;77.72
74529;BME280;63009;52.584;5.932;2023-05-19T06:32:15;102765.53;;;13.49;76.98
74529;BME280;63009;52.584;5.932;2023-05-19T06:34:40;102770.38;;;13.61;76.13
74529;BME280;63009;52.584;5.932;2023-05-19T06:37:06;102776.28;;;13.89;77.05
74529;BME280;63009;52.584;5.932;2023-05-19T06:39:31;102766.44;;;13.91;75.32
74529;BME280;63009;52.584;5.932;2023-05-19T06:41:56;102779.34;;;13.80;73.44
74529;BME280;63009;52.584;5.932;2023-05-19T06:44:22;102766.63;;;14.09;73.75
74529;BME280;63009;52.584;5.932;2023-05-19T06:46:47;102767.63;;;14.26;72.91
74529;BME280;63009;52.584;5.932;2023-05-19T06:49:12;102775.78;;;14.44;74.16
74529;BME280;63009;52.584;5.932;2023-05-19T06:51:38;102778.22;;;14.69;71.70
74529;BME280;63009;52.584;5.932;2023-05-19T06:54:03;102766.88;;;14.84;70.46
74529;BME280;63009;52.584;5.932;2023-05-19T06:56:29;102782.44;;;14.93;69.93
74529;BME280;63009;52.584;5.932;2023-05-19T06:58:54;102781.38;;;14.77;70.96
74529;BME280;63009;52.584;5.932;2023-05-19T07:01:19;102779.13;;;14.88;70.92
74529;BME280;63009;52.584;5.932;2023-05-19T07:03:45;102778.44;;;15.22;69.73
74529;BME280;63009;52.584;5.932;2023-05-19T07:06:11;102783.47;;;15.66;69.90
74529;BME280;63009;52.584;5.932;2023-05-19T07:08:37;102781.88;;;15.98;66.96
74529;BME280;63009;52.584;5.932;2023-05-19T07:11:02;102783.38;;;16.21;67.43
74529;BME280;63009;52.584;5.932;2023-05-19T07:13:28;102782.13;;;16.28;65.14
74529;BME280;63009;52.584;5.932;2023-05-19T07:15:53;102787.28;;;16.31;65.82
74529;BME280;63009;52.584;5.932;2023-05-19T07:18:21;102781.50;;;16.23;64.39
74529;BME280;63009;52.584;5.932;2023-05-19T07:20:47;102779.66;;;15.89;64.61
74529;BME280;63009;52.584;5.932;2023-05-19T07:23:12;102764.75;;;16.02;63.89
74529;BME280;63009;52.584;5.932;2023-05-19T07:25:37;102782.91;;;16.30;64.57
74529;BME280;63009;52.584;5.932;2023-05-19T07:28:03;102778.19;;;16.35;61.43
74529;BME280;63009;52.584;5.932;2023-05-19T07:30:28;102775.94;;;16.60;61.17
74529;BME280;63009;52.584;5.932;2023-05-19T07:32:54;102768.59;;;16.66;62.63
74529;BME280;63009;52.584;5.932;2023-05-19T07:35:19;102777.69;;;16.79;61.19
74529;BME280;63009;52.584;5.932;2023-05-19T07:37:47;102772.00;;;17.18;60.24
74529;BME280;63009;52.584;5.932;2023-05-19T07:40:12;102786.56;;;17.28;57.86
74529;BME280;63009;52.584;5.932;2023-05-19T07:42:37;102782.41;;;17.54;59.71
74529;BME280;63009;52.584;5.932;2023-05-19T07:45:03;102779.47;;;17.59;56.77
74529;BME280;63009;52.584;5.932;2023-05-19T07:47:29;102779.16;;;17.49;56.57
74529;BME280;63009;52.584;5.932;2023-05-19T07:49:54;102778.13;;;17.51;55.32
74529;BME280;63009;52.584;5.932;2023-05-19T07:52:20;102772.59;;;17.39;55.53
74529;BME280;63009;52.584;5.932;2023-05-19T07:54:45;102773.97;;;17.30;54.86
74529;BME280;63009;52.584;5.932;2023-05-19T07:57:10;102773.69;;;17.66;56.63
74529;BME280;63009;52.584;5.932;2023-05-19T07:59:36;102767.31;;;17.53;55.69
74529;BME280;63009;52.584;5.932;2023-05-19T08:02:01;102769.34;;;17.34;55.61
74529;BME280;63009;52.584;5.932;2023-05-19T08:04:26;102767.34;;;17.69;56.59
74529;BME280;63009;52.584;5.932;2023-05-19T08:06:52;102764.31;;;17.43;55.86
74529;BME280;63009;52.584;5.932;2023-05-19T08:09:18;102768.72;;;17.60;53.27
74529;BME280;63009;52.584;5.932;2023-05-19T08:11:43;102770.47;;;17.45;53.35
74529;BME280;63009;52.584;5.932;2023-05-19T08:14:10;102764.97;;;17.00;54.22
74529;BME280;63009;52.584;5.932;2023-05-19T08:16:36;102761.91;;;17.23;53.90
74529;BME280;63009;52.584;5.932;2023-05-19T08:19:01;102758.97;;;17.28;55.15
74529;BME280;63009;52.584;5.932;2023-05-19T08:21:28;102758.19;;;17.10;53.79
74529;BME280;63009;52.584;5.932;2023-05-19T08:23:54;102761.59;;;16.63;54.05
74529;BME280;63009;52.584;5.932;2023-05-19T08:26:19;102745.22;;;16.86;55.54
74529;BME280;63009;52.584;5.932;2023-05-19T08:28:45;102740.63;;;16.73;55.23
74529;BME280;63009;52.584;5.932;2023-05-19T08:31:10;102751.50;;;16.85;54.61
74529;BME280;63009;52.584;5.932;2023-05-19T08:33:36;102750.16;;;17.10;54.67
74529;BME280;63009;52.584;5.932;2023-05-19T08:36:01;102747.84;;;17.04;54.15
74529;BME280;63009;52.584;5.932;2023-05-19T08:38:26;102740.69;;;17.20;55.35
74529;BME280;63009;52.584;5.932;2023-05-19T08:40:52;102742.91;;;17.43;53.32
74529;BME280;63009;52.584;5.932;2023-05-19T08:43:17;102736.63;;;17.44;53.70
74529;BME280;63009;52.584;5.932;2023-05-19T08:45:44;102729.75;;;17.25;53.07
74529;BME280;63009;52.584;5.932;2023-05-19T08:48:13;102725.78;;;17.47;53.66
74529;BME280;63009;52.584;5.932;2023-05-19T08:50:40;102717.72;;;17.79;53.49
74529;BME280;63009;52.584;5.932;2023-05-19T08:53:19;102723.16;;;18.07;51.49
74529;BME280;63009;52.584;5.932;2023-05-19T08:56:00;102719.06;;;18.16;49.04
74529;BME280;63009;52.584;5.932;2023-05-19T08:58:29;102714.63;;;18.45;51.50
74529;BME280;63009;52.584;5.932;2023-05-19T09:00:55;102713.00;;;18.71;49.84
74529;BME280;63009;52.584;5.932;2023-05-19T09:03:21;102712.81;;;18.60;49.25
74529;BME280;63009;52.584;5.932;2023-05-19T09:05:47;102715.03;;;18.09;48.45
74529;BME280;63009;52.584;5.932;2023-05-19T09:08:12;102715.19;;;18.50;48.72
74529;BME280;63009;52.584;5.932;2023-05-19T09:10:38;102704.28;;;18.39;48.03
74529;BME280;63009;52.584;5.932;2023-05-19T09:13:03;102707.13;;;18.22;49.33
74529;BME280;63009;52.584;5.932;2023-05-19T09:15:29;102716.81;;;18.53;49.23
74529;BME280;63009;52.584;5.932;2023-05-19T09:18:10;102698.56;;;18.59;49.44
74529;BME280;63009;52.584;5.932;2023-05-19T09:20:39;102700.38;;;18.87;46.27
74529;BME280;63009;52.584;5.932;2023-05-19T09:23:05;102705.66;;;18.75;46.55
74529;BME280;63009;52.584;5.932;2023-05-19T09:25:31;102707.44;;;18.60;43.62
74529;BME280;63009;52.584;5.932;2023-05-19T09:27:57;102696.16;;;18.69;46.99
74529;BME280;63009;52.584;5.932;2023-05-19T09:30:22;102691.09;;;18.79;45.24
74529;BME280;63009;52.584;5.932;2023-05-19T09:32:48;102696.44;;;18.93;45.62
74529;BME280;63009;52.584;5.932;2023-05-19T09:35:13;102697.16;;;19.09;44.42
74529;BME280;63009;52.584;5.932;2023-05-19T09:37:42;102695.00;;;19.02;45.81
74529;BME280;63009;52.584;5.932;2023-05-19T09:40:13;102681.66;;;19.14;46.84
74529;BME280;63009;52.584;5.932;2023-05-19T09:42:39;102681.94;;;19.37;45.13
74529;BME280;63009;52.584;5.932;2023-05-19T09:45:06;102695.53;;;19.07;43.58
74529;BME280;63009;52.584;5.932;2023-05-19T09:47:35;102704.34;;;19.09;44.69
74529;BME280;63009;52.584;5.932;2023-05-19T09:50:05;102704.06;;;18.99;42.51
74529;BME280;63009;52.584;5.932;2023-05-19T09:52:39;102694.81;;;18.90;43.36
74529;BME280;63009;52.584;5.932;2023-05-19T09:55:08;102695.75;;;19.04;44.34
74529;BME280;63009;52.584;5.932;2023-05-19T09:57:35;102687.16;;;18.56;43.68
74529;BME280;63009;52.584;5.932;2023-05-19T10:00:05;102702.09;;;18.88;42.98
74529;BME280;63009;52.584;5.932;2023-05-19T10:02:49;102692.25;;;18.75;43.44
74529;BME280;63009;52.584;5.932;2023-05-19T10:05:16;102696.88;;;18.99;44.96
74529;BME280;63009;52.584;5.932;2023-05-19T10:07:44;102687.97;;;18.72;41.12
74529;BME280;63009;52.584;5.932;2023-05-19T10:10:12;102691.28;;;18.90;42.41
74529;BME280;63009;52.584;5.932;2023-05-19T10:12:38;102690.41;;;18.89;42.83
74529;BME280;63009;52.584;5.932;2023-05-19T10:15:07;102679.06;;;19.40;44.07
74529;BME280;63009;52.584;5.932;2023-05-19T10:17:40;102684.56;;;18.97;42.38
74529;BME280;63009;52.584;5.932;2023-05-19T10:20:08;102688.06;;;19.39;41.59
74529;BME280;63009;52.584;5.932;2023-05-19T10:22:34;102687.38;;;19.76;42.47
74529;BME280;63009;52.584;5.932;2023-05-19T10:24:59;102667.22;;;20.09;42.91
74529;BME280;63009;52.584;5.932;2023-05-19T10:27:27;102678.28;;;20.17;42.69
74529;BME280;63009;52.584;5.932;2023-05-19T10:29:53;102682.94;;;20.28;40.01
74529;BME280;63009;52.584;5.932;2023-05-19T10:32:27;102680.09;;;19.91;41.30
74529;BME280;63009;52.584;5.932;2023-05-19T10:37:33;102657.97;;;20.26;40.30
74529;BME280;63009;52.584;5.932;2023-05-19T10:40:08;102651.63;;;20.39;40.57
74529;BME280;63009;52.584;5.932;2023-05-19T10:43:01;102657.22;;;19.98;42.44
74529;BME280;63009;52.584;5.932;2023-05-19T10:45:33;102647.25;;;20.00;42.40
74529;BME280;63009;52.584;5.932;2023-05-19T10:48:00;102657.31;;;19.71;41.98
74529;BME280;63009;52.584;5.932;2023-05-19T10:50:25;102642.28;;;19.81;43.34
74529;BME280;63009;52.584;5.932;2023-05-19T10:52:54;102646.38;;;19.87;40.73
74529;BME280;63009;52.584;5.932;2023-05-19T10:58:11;102647.16;;;20.27;41.78
74529;BME280;63009;52.584;5.932;2023-05-19T11:00:38;102642.50;;;19.78;41.58
74529;BME280;63009;52.584;5.932;2023-05-19T11:03:16;102637.16;;;20.04;43.43
74529;BME280;63009;52.584;5.932;2023-05-19T11:05:42;102641.78;;;20.27;43.25
74529;BME280;63009;52.584;5.932;2023-05-19T11:08:10;102645.94;;;19.93;40.06
74529;BME280;63009;52.584;5.932;2023-05-19T11:10:36;102641.09;;;19.60;42.02
74529;BME280;63009;52.584;5.932;2023-05-19T11:13:03;102643.50;;;19.23;40.85
74529;BME280;63009;52.584;5.932;2023-05-19T11:15:33;102628.75;;;19.58;41.33
74529;BME280;63009;52.584;5.932;2023-05-19T11:18:00;102636.47;;;19.35;39.51
74529;BME280;63009;52.584;5.932;2023-05-19T11:20:27;102633.63;;;19.51;39.95
74529;BME280;63009;52.584;5.932;2023-05-19T11:23:14;102643.59;;;19.49;43.47
74529;BME280;63009;52.584;5.932;2023-05-19T11:25:46;102636.25;;;19.38;39.53
74529;BME280;63009;52.584;5.932;2023-05-19T11:28:14;102638.84;;;19.67;39.50
74529;BME280;63009;52.584;5.932;2023-05-19T11:30:41;102632.00;;;19.88;40.39
74529;BME280;63009;52.584;5.932;2023-05-19T11:33:07;102636.72;;;20.35;41.84
74529;BME280;63009;52.584;5.932;2023-05-19T11:35:33;102617.28;;;20.06;39.33
74529;BME280;63009;52.584;5.932;2023-05-19T11:37:59;102629.28;;;20.39;41.93
74529;BME280;63009;52.584;5.932;2023-05-19T11:40:25;102627.28;;;20.55;39.66
74529;BME280;63009;52.584;5.932;2023-05-19T11:42:51;102611.81;;;20.21;39.05
74529;BME280;63009;52.584;5.932;2023-05-19T11:45:16;102617.28;;;20.06;39.35
74529;BME280;63009;52.584;5.932;2023-05-19T11:47:48;102629.75;;;20.20;39.62
74529;BME280;63009;52.584;5.932;2023-05-19T11:50:13;102614.50;;;19.82;41.24
74529;BME280;63009;52.584;5.932;2023-05-19T11:52:43;102617.28;;;19.94;38.05
74529;BME280;63009;52.584;5.932;2023-05-19T11:55:14;102619.66;;;20.11;38.15
74529;BME280;63009;52.584;5.932;2023-05-19T11:57:39;102617.63;;;20.14;40.14
74529;BME280;63009;52.584;5.932;2023-05-19T12:00:05;102620.50;;;20.24;41.33
74529;BME280;63009;52.584;5.932;2023-05-19T12:02:32;102618.88;;;20.60;39.67
74529;BME280;63009;52.584;5.932;2023-05-19T12:04:57;102615.44;;;20.58;38.28
74529;BME280;63009;52.584;5.932;2023-05-19T12:07:23;102614.88;;;20.40;39.59
74529;BME280;63009;52.584;5.932;2023-05-19T12:09:49;102615.56;;;20.80;40.49
74529;BME280;63009;52.584;5.932;2023-05-19T12:12:16;102612.09;;;20.91;38.95
74529;BME280;63009;52.584;5.932;2023-05-19T12:14:43;102605.47;;;20.84;41.33
74529;BME280;63009;52.584;5.932;2023-05-19T12:17:12;102608.91;;;21.33;39.38
74529;BME280;63009;52.584;5.932;2023-05-19T12:19:38;102610.06;;;21.53;38.39
74529;BME280;63009;52.584;5.932;2023-05-19T12:22:05;102599.28;;;21.18;38.48
74529;BME280;63009;52.584;5.932;2023-05-19T12:24:32;102610.50;;;20.88;36.69
74529;BME280;63009;52.584;5.932;2023-05-19T12:27:24;102613.47;;;20.96;38.23
74529;BME280;63009;52.584;5.932;2023-05-19T12:29:53;102610.28;;;20.55;38.09
74529;BME280;63009;52.584;5.932;2023-05-19T12:32:26;102600.44;;;20.79;39.04
74529;BME280;63009;52.584;5.932;2023-05-19T12:34:54;102616.44;;;20.81;38.81
74529;BME280;63009;52.584;5.932;2023-05-19T12:37:20;102607.66;;;20.66;38.58
74529;BME280;63009;52.584;5.932;2023-05-19T12:39:47;102603.06;;;20.92;38.91
74529;BME280;63009;52.584;5.932;2023-05-19T12:42:14;102590.22;;;20.84;38.14
74529;BME280;63009;52.584;5.932;2023-05-19T12:44:45;102592.75;;;20.62;39.33
74529;BME280;63009;52.584;5.932;2023-05-19T12:47:18;102582.03;;;20.86;39.07
74529;BME280;63009;52.584;5.932;2023-05-19T12:52:25;102579.56;;;21.07;38.36
74529;BME280;63009;52.584;5.932;2023-05-19T12:55:07;102587.72;;;20.81;38.72
74529;BME280;63009;52.584;5.932;2023-05-19T12:57:36;102580.81;;;20.90;37.91
74529;BME280;63009;52.584;5.932;2023-05-19T13:02:57;102573.69;;;21.01;37.47
74529;BME280;63009;52.584;5.932;2023-05-19T13:05:24;102568.56;;;20.62;39.04
74529;BME280;63009;52.584;5.932;2023-05-19T13:08:04;102568.41;;;20.27;39.71
74529;BME280;63009;52.584;5.932;2023-05-19T13:10:30;102577.84;;;20.32;38.65
74529;BME280;63009;52.584;5.932;2023-05-19T13:12:56;102572.88;;;20.52;39.04